Time;durP1;ratioP1;P1;durP2;ratioP2;P2;SDS_P1;SDS_P2;PMS_P1;PMS_P2;Temp;Humidity;BMP_temperature;BMP_pressure;BME280_temperature;BME280_humidity;BME280_pressure;Samples;Min_cycle;Max_cycle;Signal;HPM_P1;HPM_P2
2021/12/14 00:03:40;;;;;;;0.10;0.10;;;;;;;6.90;100.00;102554.22;10416541;28;20048;-67
2021/12/14 00:19:41;;;;;;;0.00;0.00;;;;;;;7.05;100.00;102549.78;10415211;28;20500;-68
2021/12/14 00:24:42;;;;;;;0.00;0.00;;;;;;;7.07;100.00;102540.78;10413546;28;20025;-68
2021/12/14 00:29:46;;;;;;;0.10;0.10;;;;;;;7.09;100.00;102540.69;10410966;28;20087;-68
2021/12/14 00:34:48;;;;;;;0.00;0.00;;;;;;;7.09;100.00;102540.69;10414965;28;20104;-68
2021/12/14 00:39:51;;;;;;;0.00;0.00;;;;;;;7.10;100.00;102545.91;10411872;28;20435;-68
2021/12/14 00:44:52;;;;;;;0.00;0.00;;;;;;;7.11;100.00;102541.44;10396503;28;20108;-68
2021/12/14 00:49:54;;;;;;;0.00;0.00;;;;;;;7.08;100.00;102542.50;10396375;28;20021;-68
2021/12/14 00:54:55;;;;;;;0.00;0.00;;;;;;;7.09;100.00;102553.94;10411601;28;20453;-68
2021/12/14 00:59:55;;;;;;;0.00;0.00;;;;;;;7.10;100.00;102545.03;10411349;28;20105;-68
2021/12/14 01:05:00;;;;;;;0.10;0.10;;;;;;;7.11;100.00;102571.44;10412950;28;20019;-68
2021/12/14 01:10:08;;;;;;;0.00;0.00;;;;;;;7.12;100.00;102553.75;10412597;28;20113;-67
2021/12/14 01:15:29;;;;;;;0.00;0.00;;;;;;;7.11;100.00;102555.53;10413899;28;20095;-68
2021/12/14 01:20:38;;;;;;;0.08;0.08;;;;;;;7.11;100.00;102542.28;10412968;28;20024;-68
2021/12/14 01:25:47;;;;;;;0.00;0.00;;;;;;;7.12;100.00;102532.53;10408916;28;20027;-68
2021/12/14 01:31:17;;;;;;;0.00;0.00;;;;;;;7.12;100.00;102535.19;10412255;28;20040;-68
2021/12/14 01:36:25;;;;;;;0.00;0.00;;;;;;;7.09;100.00;102544.19;10411839;28;20021;-68
2021/12/14 01:41:26;;;;;;;0.00;0.00;;;;;;;7.07;100.00;102550.50;10412293;28;20010;-68
2021/12/14 01:46:45;;;;;;;0.10;0.10;;;;;;;7.06;100.00;102543.53;10412154;28;20468;-68
2021/12/14 01:51:49;;;;;;;0.00;0.00;;;;;;;7.05;100.00;102524.13;10411571;28;20021;-68
2021/12/14 01:56:50;;;;;;;0.10;0.10;;;;;;;7.05;100.00;102508.22;10403619;28;20029;-68
2021/12/14 02:02:21;;;;;;;0.00;0.00;;;;;;;7.03;100.00;102503.00;10411249;28;20029;-67
2021/12/14 02:07:16;;;;;;;0.10;0.10;;;;;;;7.05;100.00;102494.13;10408670;28;20029;-67
2021/12/14 02:12:22;;;;;;;0.00;0.00;;;;;;;7.05;100.00;102481.72;10411177;28;20179;-68
2021/12/14 02:17:23;;;;;;;0.10;0.10;;;;;;;7.07;100.00;102473.69;10410211;28;20541;-67
2021/12/14 02:22:26;;;;;;;0.00;0.00;;;;;;;7.07;100.00;102458.66;10393044;28;20021;-67
2021/12/14 02:27:45;;;;;;;0.00;0.00;;;;;;;7.05;100.00;102442.00;10405284;28;20207;-67
2021/12/14 02:32:45;;;;;;;0.00;0.00;;;;;;;7.04;100.00;102437.66;10410210;28;20052;-69
2021/12/14 02:37:57;;;;;;;0.00;0.00;;;;;;;7.03;100.00;102430.63;10409794;28;20484;-67
2021/12/14 02:43:01;;;;;;;0.10;0.10;;;;;;;7.04;100.00;102440.31;10409657;28;20026;-67
2021/12/14 02:48:07;;;;;;;0.00;0.00;;;;;;;7.05;100.00;102427.91;10409655;28;20022;-67
2021/12/14 02:53:10;;;;;;;0.00;0.00;;;;;;;7.03;100.00;102442.06;10409719;28;21120;-68
2021/12/14 02:58:11;;;;;;;0.10;0.10;;;;;;;7.04;100.00;102450.91;10406224;28;20029;-67
2021/12/14 03:03:13;;;;;;;0.10;0.10;;;;;;;7.07;100.00;102436.56;10409534;28;20028;-68
2021/12/14 03:08:25;;;;;;;0.10;0.10;;;;;;;7.07;100.00;102442.75;10408258;28;20022;-68
2021/12/14 03:13:31;;;;;;;0.10;0.10;;;;;;;7.09;100.00;102443.50;10408882;28;20017;-68
2021/12/14 03:18:35;;;;;;;0.00;0.00;;;;;;;7.09;100.00;102454.09;10405883;28;20025;-68
2021/12/14 03:23:59;;;;;;;0.00;0.00;;;;;;;7.04;100.00;102450.91;10409072;28;20017;-68
2021/12/14 03:29:07;;;;;;;0.10;0.10;;;;;;;7.06;100.00;102456.94;10400734;28;20041;-68
2021/12/14 03:34:36;;;;;;;0.10;0.10;;;;;;;7.05;100.00;102460.53;10408558;28;20022;-67
2021/12/14 03:39:43;;;;;;;0.10;0.10;;;;;;;7.05;100.00;102446.44;10403761;28;20033;-67
2021/12/14 03:44:48;;;;;;;0.00;0.00;;;;;;;7.06;100.00;102432.25;10408318;28;20116;-68
2021/12/14 03:49:54;;;;;;;;;;;;;;;7.05;100.00;102446.44;10408019;28;20071;-67
2021/12/14 03:54:56;;;;;;;0.00;0.00;;;;;;;7.03;100.00;102441.22;10385713;28;19916;-67
2021/12/14 03:59:57;;;;;;;0.00;0.00;;;;;;;7.02;100.00;102421.00;10404703;28;20357;-67
2021/12/14 04:05:06;;;;;;;0.00;0.00;;;;;;;6.99;100.00;102431.78;10405726;28;20021;-67
2021/12/14 04:10:17;;;;;;;0.00;0.00;;;;;;;6.95;100.00;102425.84;10408015;28;20384;-68
2021/12/14 04:15:18;;;;;;;0.00;0.00;;;;;;;6.93;100.00;102424.22;10389743;28;20503;-67
2021/12/14 04:20:25;;;;;;;0.10;0.10;;;;;;;6.91;100.00;102412.88;10452427;23;20148;-68
2021/12/14 04:25:30;;;;;;;0.05;0.05;;;;;;;6.88;100.00;102413.91;10450729;28;20053;-68
2021/12/14 04:30:30;;;;;;;0.00;0.00;;;;;;;6.87;100.00;102416.66;10450503;28;20025;-68
2021/12/14 04:35:33;;;;;;;0.00;0.00;;;;;;;6.87;100.00;102421.97;10450550;28;20032;-67
2021/12/14 04:51:57;;;;;;;0.00;0.00;;;;;;;6.89;100.00;102418.25;10458506;28;20116;-68
2021/12/14 04:56:29;;;;;;;0.00;0.00;;;;;;;6.93;100.00;102416.28;10457914;28;20028;-67
2021/12/14 05:01:34;;;;;;;0.10;0.10;;;;;;;6.93;100.00;102405.69;10457337;28;20475;-68
2021/12/14 05:06:51;;;;;;;0.10;0.10;;;;;;;6.92;100.00;102409.25;10457586;28;20412;-68
2021/12/14 05:11:53;;;;;;;0.00;0.00;;;;;;;6.93;100.00;102411.81;10438967;28;20028;-68
2021/12/14 05:17:04;;;;;;;0.03;0.03;;;;;;;6.94;100.00;102392.31;10438677;28;20024;-68
2021/12/14 05:22:07;;;;;;;0.10;0.10;;;;;;;6.97;100.00;102391.28;10456217;28;20025;-68
2021/12/14 05:27:14;;;;;;;0.00;0.00;;;;;;;6.97;100.00;102386.81;10456001;28;20025;-68
2021/12/14 05:32:15;;;;;;;0.00;0.00;;;;;;;6.99;100.00;102389.41;10437787;28;20480;-68
2021/12/14 05:37:25;;;;;;;0.00;0.00;;;;;;;6.97;100.00;102389.47;10437571;28;20431;-68
2021/12/14 05:47:51;;;;;;;0.10;0.10;;;;;;;6.90;100.00;102387.34;10455491;28;20025;-68
2021/12/14 05:52:52;;;;;;;0.10;0.10;;;;;;;6.84;100.00;102385.91;10454585;28;20471;-68
2021/12/14 05:57:56;;;;;;;0.00;0.00;;;;;;;6.78;100.00;102379.22;10455053;28;20060;-67
2021/12/14 06:02:56;;;;;;;0.00;0.00;;;;;;;6.73;100.00;102393.69;10454695;28;20036;-67
2021/12/14 06:07:58;;;;;;;0.00;0.00;;;;;;;6.70;100.00;102407.13;10454376;28;20032;-67
2021/12/14 06:12:59;;;;;;;0.00;0.00;;;;;;;6.67;100.00;102404.66;10430418;28;20120;-67
2021/12/14 06:17:59;;;;;;;0.00;0.00;;;;;;;6.65;100.00;102411.84;10395691;28;20128;-68
2021/12/14 06:23:00;;;;;;;0.00;0.00;;;;;;;6.62;100.00;102407.56;10412758;28;20014;-67
2021/12/14 06:28:02;;;;;;;0.00;0.00;;;;;;;6.62;100.00;102396.16;10412495;28;20266;-67
2021/12/14 06:33:09;;;;;;;0.00;0.00;;;;;;;6.63;100.00;102403.13;10394167;28;20057;-67
2021/12/14 06:38:29;;;;;;;0.00;0.00;;;;;;;6.62;100.00;102412.88;10412312;28;20029;-67
2021/12/14 06:43:37;;;;;;;0.08;0.08;;;;;;;6.65;100.00;102415.34;10411482;28;20025;-67
2021/12/14 06:48:42;;;;;;;0.00;0.00;;;;;;;6.65;100.00;102417.97;10411451;28;20337;-67
2021/12/14 06:53:48;;;;;;;0.00;0.00;;;;;;;6.66;100.00;102419.72;10411061;28;20029;-67
2021/12/14 06:58:56;;;;;;;0.00;0.00;;;;;;;6.66;100.00;102422.34;10411128;28;20325;-67
2021/12/14 07:04:01;;;;;;;0.00;0.00;;;;;;;6.72;100.00;102426.38;10392394;28;20024;-67
2021/12/14 07:09:13;;;;;;;0.00;0.00;;;;;;;6.74;100.00;102435.94;10410676;28;20033;-67
2021/12/14 07:14:26;;;;;;;0.00;0.00;;;;;;;6.76;100.00;102422.63;10410722;28;20037;-68
2021/12/14 07:19:44;;;;;;;0.00;0.00;;;;;;;6.78;100.00;102437.47;10410139;28;20239;-68
2021/12/14 07:24:45;;;;;;;0.00;0.00;;;;;;;6.80;100.00;102437.38;10410242;28;20045;-68
2021/12/14 07:29:47;;;;;;;0.00;0.00;;;;;;;6.81;100.00;102447.03;10409954;28;20116;-68
2021/12/14 07:34:47;;;;;;;0.00;0.00;;;;;;;6.82;100.00;102451.38;10410382;28;20025;-68
2021/12/14 07:39:51;;;;;;;0.00;0.00;;;;;;;6.83;100.00;102453.06;10409941;28;20021;-68
2021/12/14 07:44:51;;;;;;;0.00;0.00;;;;;;;6.86;100.00;102457.31;10426927;28;20024;-68
2021/12/14 07:49:54;;;;;;;0.00;0.00;;;;;;;6.89;100.00;102465.91;10450741;28;20108;-68
2021/12/14 07:55:03;;;;;;;0.00;0.00;;;;;;;6.90;100.00;102467.66;10451422;28;20098;-68
2021/12/14 08:00:13;;;;;;;0.10;0.10;;;;;;;6.92;100.00;102463.13;10433465;28;20056;-68
2021/12/14 08:05:18;;;;;;;0.10;0.10;;;;;;;6.92;100.00;102486.09;10450990;28;20033;-68
2021/12/14 08:10:32;;;;;;;0.00;0.00;;;;;;;6.94;100.00;102481.53;10451548;28;20033;-68
2021/12/14 08:15:41;;;;;;;0.00;0.00;;;;;;;6.91;100.00;102481.75;10457834;28;20047;-68
2021/12/14 08:20:44;;;;;;;0.10;0.10;;;;;;;6.89;100.00;102492.41;10459343;28;20025;-68
2021/12/14 08:25:45;;;;;;;0.00;0.00;;;;;;;6.87;100.00;102483.72;10458883;28;20029;-68
2021/12/14 08:30:54;;;;;;;0.10;0.10;;;;;;;6.85;100.00;102475.03;10458649;28;20029;-68
2021/12/14 08:36:00;;;;;;;0.10;0.10;;;;;;;6.85;100.00;102476.81;10458259;28;20020;-68
2021/12/14 08:41:13;;;;;;;0.10;0.10;;;;;;;6.84;100.00;102475.97;10457563;28;20021;-68
2021/12/14 08:46:26;;;;;;;0.10;0.10;;;;;;;6.84;100.00;102478.63;10429475;28;20162;-68
2021/12/14 08:51:32;;;;;;;0.00;0.00;;;;;;;6.85;100.00;102484.78;10416013;28;20018;-68
2021/12/14 08:56:37;;;;;;;0.00;0.00;;;;;;;6.89;100.00;102487.13;10397981;28;20118;-68
2021/12/14 09:01:40;;;;;;;0.00;0.00;;;;;;;6.93;100.00;102498.41;10415462;28;20496;-67
2021/12/14 09:06:45;;;;;;;0.05;0.05;;;;;;;6.97;100.00;102494.59;10397585;28;20121;-68
2021/12/14 09:11:50;;;;;;;0.00;0.00;;;;;;;6.97;100.00;102476.06;10414602;28;20395;-67
2021/12/14 09:16:54;;;;;;;0.00;0.00;;;;;;;7.01;100.00;102467.84;10414981;28;20489;-67
2021/12/14 09:21:58;;;;;;;0.05;0.05;;;;;;;7.01;100.00;102477.56;10415228;28;20111;-68
2021/12/14 09:27:04;;;;;;;0.00;0.00;;;;;;;7.04;100.00;102485.34;10414341;28;20547;-68
2021/12/14 09:32:09;;;;;;;0.00;0.00;;;;;;;7.06;100.00;102499.31;10414507;28;20021;-68
2021/12/14 09:37:11;;;;;;;0.00;0.00;;;;;;;7.09;100.00;102501.78;10414180;28;20025;-68
2021/12/14 09:42:19;;;;;;;0.00;0.00;;;;;;;7.13;100.00;102507.78;10414445;28;20357;-68
2021/12/14 09:47:26;;;;;;;0.10;0.10;;;;;;;7.15;100.00;102509.34;10413638;28;20021;-67
2021/12/14 09:52:33;;;;;;;0.00;0.00;;;;;;;7.17;100.00;102520.72;10413674;28;20060;-67
2021/12/14 09:57:39;;;;;;;0.20;0.20;;;;;;;7.18;100.00;102527.72;10413474;28;20026;-67
2021/12/14 10:02:43;;;;;;;0.00;0.00;;;;;;;7.18;100.00;102525.06;10414257;28;20283;-68
2021/12/14 10:07:44;;;;;;;0.00;0.00;;;;;;;7.21;100.00;102530.19;10420175;28;20041;-67
2021/12/14 10:12:51;;;;;;;0.00;0.00;;;;;;;7.23;100.00;102522.13;10448036;28;20056;-67
2021/12/14 10:22:54;;;;;;;0.08;0.08;;;;;;;7.31;100.00;102534.91;10391385;28;20068;-68
2021/12/14 10:27:55;;;;;;;0.00;0.00;;;;;;;7.33;100.00;102520.63;10374043;28;20684;-68
2021/12/14 10:32:57;;;;;;;0.00;0.00;;;;;;;7.33;100.00;102519.75;10371593;28;20117;-68
2021/12/14 10:38:11;;;;;;;0.00;0.00;;;;;;;7.35;100.00;102516.06;10367428;28;20401;-68
2021/12/14 10:43:18;;;;;;;0.00;0.00;;;;;;;7.37;100.00;102519.47;10349909;28;20026;-68
2021/12/14 10:48:21;;;;;;;0.00;0.00;;;;;;;7.41;100.00;102533.38;10370758;28;20041;-68
2021/12/14 10:53:23;;;;;;;0.00;0.00;;;;;;;7.45;100.00;102530.44;10333958;28;20502;-68
2021/12/14 10:58:29;;;;;;;0.00;0.00;;;;;;;7.46;100.00;102528.63;10329571;28;20564;-68
2021/12/14 11:03:35;;;;;;;0.00;0.00;;;;;;;7.46;100.00;102531.28;10336130;28;20087;-68
2021/12/14 11:08:58;;;;;;;0.05;0.05;;;;;;;7.46;100.00;102532.13;10369548;28;20337;-68
2021/12/14 11:14:01;;;;;;;0.00;0.00;;;;;;;7.47;100.00;102530.31;10361248;28;20022;-68
2021/12/14 11:19:05;;;;;;;0.10;0.10;;;;;;;7.47;100.00;102528.53;10367068;28;20057;-68
2021/12/14 11:24:05;;;;;;;0.10;0.10;;;;;;;7.52;100.00;102535.34;10329218;28;20025;-68
2021/12/14 11:29:13;;;;;;;0.00;0.00;;;;;;;7.54;100.00;102539.63;10355509;28;20424;-68
2021/12/14 11:34:17;;;;;;;0.10;0.10;;;;;;;7.54;100.00;102544.06;10369503;28;20280;-68
2021/12/14 11:39:28;;;;;;;0.10;0.10;;;;;;;7.53;100.00;102550.31;10332985;28;20486;-68
2021/12/14 11:45:06;;;;;;;0.10;0.10;;;;;;;7.51;100.00;102562.84;10335497;28;20022;-68
2021/12/14 11:50:15;;;;;;;0.00;0.00;;;;;;;7.50;100.00;102569.91;10366430;28;20083;-68
2021/12/14 11:55:37;;;;;;;0.10;0.10;;;;;;;7.52;100.00;102565.38;10382709;28;20443;-68
2021/12/14 12:00:47;;;;;;;0.00;0.00;;;;;;;7.52;100.00;102564.53;10350349;28;20381;-68
2021/12/14 12:05:59;;;;;;;0.00;0.00;;;;;;;7.54;100.00;102566.13;10352628;28;20536;-68
2021/12/14 12:11:05;;;;;;;0.00;0.00;;;;;;;7.58;100.00;102564.13;10361321;28;20109;-68
2021/12/14 12:16:20;;;;;;;0.00;0.00;;;;;;;7.63;100.00;102559.41;10370172;28;20127;-68
2021/12/14 12:21:31;;;;;;;0.00;0.00;;;;;;;7.68;100.00;102555.50;10369220;28;20026;-68
2021/12/14 12:26:34;;;;;;;0.00;0.00;;;;;;;7.76;100.00;102556.78;10356762;28;20528;-68
2021/12/14 12:31:39;;;;;;;0.10;0.10;;;;;;;7.81;100.00;102557.34;10359731;28;20030;-68
2021/12/14 12:36:41;;;;;;;0.00;0.00;;;;;;;7.84;100.00;102560.66;10341654;28;20030;-68
2021/12/14 12:41:51;;;;;;;0.00;0.00;;;;;;;7.86;100.00;102561.44;10360759;28;20029;-68
2021/12/14 12:46:56;;;;;;;0.10;0.10;;;;;;;7.87;100.00;102565.75;10381794;28;20030;-68
2021/12/14 12:52:02;;;;;;;0.00;0.00;;;;;;;7.89;100.00;102555.91;10372715;28;20206;-67
2021/12/14 12:57:09;;;;;;;0.00;0.00;;;;;;;7.94;100.00;102567.09;10345326;28;20077;-68
2021/12/14 13:02:22;;;;;;;0.10;0.10;;;;;;;8.00;100.00;102575.56;10343779;28;20184;-68
2021/12/14 13:07:51;;;;;;;0.10;0.10;;;;;;;8.03;100.00;102581.56;10369403;28;20029;-67
2021/12/14 13:13:00;;;;;;;0.10;0.10;;;;;;;8.03;100.00;102581.56;10330782;28;20034;-68
2021/12/14 13:18:34;;;;;;;0.10;0.10;;;;;;;8.05;100.00;102586.75;10339483;28;20101;-67
2021/12/14 13:23:39;;;;;;;;;;;;;;;8.05;100.00;102587.59;10341862;28;20029;-68
2021/12/14 13:28:40;;;;;;;0.10;0.10;;;;;;;8.01;100.00;102577.31;10355776;28;19910;-67
2021/12/14 13:33:40;;;;;;;0.10;0.10;;;;;;;7.98;100.00;102582.81;10344798;28;20104;-68
2021/12/14 13:38:41;;;;;;;0.00;0.00;;;;;;;7.94;100.00;102579.47;10359352;28;20084;-68
2021/12/14 13:43:41;;;;;;;0.10;0.10;;;;;;;7.93;100.00;102578.63;10367993;28;20018;-68
2021/12/14 13:48:41;;;;;;;0.10;0.10;;;;;;;7.90;100.00;102575.34;10354194;28;20080;-68
2021/12/14 13:53:43;;;;;;;0.10;0.10;;;;;;;7.86;100.00;102576.50;10364051;28;20280;-68
2021/12/14 13:58:44;;;;;;;0.00;0.00;;;;;;;7.80;100.00;102575.09;10370474;28;20498;-67
2021/12/14 14:03:49;;;;;;;0.10;0.10;;;;;;;7.78;100.00;102579.63;10350483;28;20025;-68
2021/12/14 14:08:55;;;;;;;0.00;0.00;;;;;;;7.76;100.00;102580.66;10356203;28;20400;-69
2021/12/14 14:14:06;;;;;;;0.00;0.00;;;;;;;7.71;100.00;102567.72;10366101;28;20387;-69
2021/12/14 14:19:13;;;;;;;0.00;0.00;;;;;;;7.68;100.00;102579.38;10371863;28;20484;-68
2021/12/14 14:24:24;;;;;;;0.00;0.00;;;;;;;7.61;100.00;102564.78;10361004;28;20211;-68
2021/12/14 14:29:38;;;;;;;0.10;0.10;;;;;;;7.45;100.00;102572.88;10367928;28;20116;-69
2021/12/14 14:34:54;;;;;;;0.10;0.10;;;;;;;7.25;100.00;102567.97;10347882;28;20022;-67
2021/12/14 14:39:57;;;;;;;0.00;0.00;;;;;;;7.06;100.00;102584.13;10342802;28;20383;-66
2021/12/14 14:45:10;;;;;;;0.10;0.10;;;;;;;6.96;100.00;102581.19;10346301;28;20026;-69
2021/12/14 14:50:20;;;;;;;0.00;0.00;;;;;;;6.92;100.00;102584.09;10354096;28;20069;-68
2021/12/14 14:55:33;;;;;;;0.00;0.00;;;;;;;6.93;100.00;102602.56;10335830;28;20034;-68
2021/12/14 15:00:37;;;;;;;0.10;0.10;;;;;;;6.95;100.00;102579.50;10340780;28;20020;-68
2021/12/14 15:05:47;;;;;;;0.10;0.10;;;;;;;6.99;100.00;102588.09;10368302;28;20018;-68
2021/12/14 15:10:54;;;;;;;0.10;0.10;;;;;;;6.98;100.00;102583.72;10340329;28;20068;-69
2021/12/14 15:16:16;;;;;;;0.00;0.00;;;;;;;6.98;100.00;102583.72;10354213;28;20111;-68
2021/12/14 15:21:30;;;;;;;0.08;0.08;;;;;;;6.99;100.00;102604.00;10346617;28;20493;-68
2021/12/14 15:26:30;;;;;;;0.10;0.10;;;;;;;6.99;100.00;102604.84;10332108;28;20021;-68
2021/12/14 15:31:31;;;;;;;0.10;0.10;;;;;;;6.99;100.00;102623.38;10368449;28;20477;-68
2021/12/14 15:36:31;;;;;;;0.10;0.10;;;;;;;7.00;100.00;102624.22;10341572;28;20030;-68
2021/12/14 15:41:39;;;;;;;0.05;0.05;;;;;;;6.99;100.00;102617.25;10352128;28;20260;-68
2021/12/14 15:46:46;;;;;;;0.00;0.00;;;;;;;6.99;100.00;102614.59;10360257;28;20022;-68
2021/12/14 15:51:58;;;;;;;0.05;0.05;;;;;;;6.98;100.00;102605.78;10358954;28;20021;-68
2021/12/14 15:57:03;;;;;;;0.00;0.00;;;;;;;7.00;100.00;102605.69;10351516;28;20049;-69
2021/12/14 16:02:07;;;;;;;0.00;0.00;;;;;;;6.99;100.00;102612.78;10368565;28;20472;-68
2021/12/14 16:07:11;;;;;;;0.00;0.00;;;;;;;6.99;100.00;102607.50;10335066;28;20072;-68
2021/12/14 16:17:26;;;;;;;0.00;0.00;;;;;;;7.04;100.00;102609.88;10360805;28;20026;-67
2021/12/14 16:22:32;;;;;;;0.10;0.10;;;;;;;7.03;100.00;102609.00;10410619;23;20104;-67
2021/12/14 16:27:35;;;;;;;0.05;0.05;;;;;;;7.04;100.00;102615.19;10407848;28;20365;-67
2021/12/14 16:32:35;;;;;;;0.00;0.00;;;;;;;7.07;100.00;102619.41;10408357;28;20028;-67
2021/12/14 16:37:36;;;;;;;0.00;0.00;;;;;;;7.07;100.00;102622.06;10416270;28;20042;-67
2021/12/14 16:42:38;;;;;;;0.00;0.00;;;;;;;7.08;100.00;102616.69;10416691;28;20022;-67
2021/12/14 16:47:48;;;;;;;0.10;0.10;;;;;;;7.09;100.00;102620.19;10416471;28;20021;-67
2021/12/14 16:52:49;;;;;;;0.10;0.10;;;;;;;7.09;100.00;102618.38;10415794;28;20026;-68
2021/12/14 16:57:52;;;;;;;0.00;0.00;;;;;;;7.11;100.00;102626.25;10378104;28;20160;-68
2021/12/14 17:02:53;;;;;;;0.00;0.00;;;;;;;7.12;100.00;102633.25;10349481;28;20022;-68
2021/12/14 17:07:57;;;;;;;0.03;0.03;;;;;;;7.12;100.00;102639.38;10331690;28;20030;-68
2021/12/14 17:13:06;;;;;;;0.00;0.00;;;;;;;7.12;100.00;102636.75;10331933;28;20473;-68
2021/12/14 17:18:19;;;;;;;0.10;0.10;;;;;;;7.14;100.00;102626.06;10331769;28;20035;-68
2021/12/14 17:23:24;;;;;;;0.00;0.00;;;;;;;7.15;100.00;102638.34;10332564;28;20109;-68
2021/12/14 17:28:45;;;;;;;0.10;0.10;;;;;;;7.15;100.00;102636.56;10353083;28;20068;-68
2021/12/14 17:33:46;;;;;;;0.00;0.00;;;;;;;7.16;100.00;102640.09;10371657;28;20029;-68
2021/12/14 17:38:49;;;;;;;0.00;0.00;;;;;;;7.18;100.00;102641.66;10371081;28;20026;-68
2021/12/14 17:44:16;;;;;;;0.10;0.10;;;;;;;7.19;100.00;102640.75;10371473;28;20057;-68
2021/12/14 17:49:17;;;;;;;0.00;0.00;;;;;;;7.21;100.00;102643.28;10370968;28;20017;-68
2021/12/14 17:54:55;;;;;;;0.10;0.10;;;;;;;7.23;100.00;102652.84;10365158;28;20030;-68
2021/12/14 18:00:13;;;;;;;0.00;0.00;;;;;;;7.24;100.00;102653.69;10293946;28;20065;-68
2021/12/14 18:05:18;;;;;;;0.10;0.10;;;;;;;7.28;100.00;102657.03;10331567;28;20113;-68
2021/12/14 18:10:24;;;;;;;0.10;0.10;;;;;;;7.30;100.00;102674.56;10331657;28;20026;-68
2021/12/14 18:15:29;;;;;;;0.03;0.03;;;;;;;7.30;100.00;102674.56;10331819;28;20022;-68
2021/12/14 18:20:30;;;;;;;0.10;0.10;;;;;;;7.31;100.00;102670.94;10331067;28;20030;-68
2021/12/14 18:25:30;;;;;;;0.00;0.00;;;;;;;7.33;100.00;102673.50;10330924;28;20492;-68
2021/12/14 18:30:34;;;;;;;0.00;0.00;;;;;;;7.35;100.00;102674.25;10330399;28;20058;-68
2021/12/14 18:35:37;;;;;;;0.00;0.00;;;;;;;7.36;100.00;102658.28;10361314;28;20674;-68
2021/12/14 18:40:46;;;;;;;0.00;0.00;;;;;;;7.38;100.00;102663.47;10353372;28;20461;-68
2021/12/14 18:46:02;;;;;;;0.03;0.03;;;;;;;7.37;100.00;102667.09;10331472;28;20034;-68
2021/12/14 18:51:04;;;;;;;0.10;0.10;;;;;;;7.36;100.00;102668.88;10330231;28;20050;-68
2021/12/14 18:56:09;;;;;;;0.00;0.00;;;;;;;7.34;100.00;102668.13;10330003;28;20469;-68
2021/12/14 19:01:21;;;;;;;0.10;0.10;;;;;;;7.35;100.00;102680.41;10329560;28;20101;-68
2021/12/14 19:06:25;;;;;;;0.00;0.00;;;;;;;7.35;100.00;102677.75;10330584;28;20053;-68
2021/12/14 19:11:30;;;;;;;0.00;0.00;;;;;;;7.34;100.00;102677.88;10329728;28;20034;-68
2021/12/14 19:16:36;;;;;;;0.00;0.00;;;;;;;7.33;100.00;102682.31;10328720;28;20030;-68
2021/12/14 19:21:40;;;;;;;0.00;0.00;;;;;;;7.34;100.00;102678.72;10329263;28;20026;-68
2021/12/14 19:26:43;;;;;;;;;;;;;;;7.35;100.00;102688.38;10329653;28;20481;-68
2021/12/14 19:32:01;;;;;;;0.00;0.00;;;;;;;7.37;100.00;102696.25;10329044;28;20321;-68
2021/12/14 19:37:04;;;;;;;0.00;0.00;;;;;;;7.39;100.00;102695.22;10357981;28;20079;-68
2021/12/14 19:42:12;;;;;;;0.00;0.00;;;;;;;7.41;100.00;102695.09;10370001;28;20420;-68
2021/12/14 19:47:20;;;;;;;0.00;0.00;;;;;;;7.43;100.00;102698.53;10367990;28;20022;-68
2021/12/14 19:52:21;;;;;;;0.00;0.00;;;;;;;7.42;100.00;102691.53;10368127;28;20033;-68
2021/12/14 19:57:25;;;;;;;0.03;0.03;;;;;;;7.44;100.00;102697.56;10368907;28;20030;-68
2021/12/14 20:02:30;;;;;;;0.00;0.00;;;;;;;7.44;100.00;102687.81;10369613;28;20069;-68
2021/12/14 20:07:35;;;;;;;0.00;0.00;;;;;;;7.43;100.00;102682.59;10337338;28;20424;-68
2021/12/14 20:12:42;;;;;;;0.10;0.10;;;;;;;7.40;100.00;102691.59;10336692;28;20393;-68
2021/12/14 20:17:47;;;;;;;0.10;0.10;;;;;;;7.41;100.00;102676.53;10341105;28;20181;-68
2021/12/14 20:22:50;;;;;;;;;;;;;;;7.41;100.00;102677.38;10364469;28;20124;-68
2021/12/14 20:27:55;;;;;;;0.00;0.00;;;;;;;7.40;100.00;102681.00;10371836;28;19914;-68
2021/12/14 20:32:55;;;;;;;;;;;;;;;7.41;100.00;102682.69;10350177;28;20022;-68
2021/12/14 20:38:03;;;;;;;0.00;0.00;;;;;;;7.41;100.00;102695.09;10365512;28;19957;-68
2021/12/14 20:48:16;;;;;;;0.00;0.00;;;;;;;7.40;100.00;102688.94;10357307;28;20021;-68
2021/12/14 20:53:18;;;;;;;0.10;0.10;;;;;;;7.41;100.00;102687.16;10357809;28;20026;-68
2021/12/14 20:58:30;;;;;;;0.00;0.00;;;;;;;7.38;100.00;102682.88;10345462;28;20033;-68
2021/12/14 21:03:36;;;;;;;0.08;0.08;;;;;;;7.39;100.00;102684.59;10352364;28;20018;-68
2021/12/14 21:08:37;;;;;;;0.00;0.00;;;;;;;7.38;100.00;102685.53;10337833;28;20121;-67
2021/12/14 21:13:41;;;;;;;0.03;0.03;;;;;;;7.38;100.00;102688.19;10351807;28;20036;-67
2021/12/14 21:18:41;;;;;;;0.10;0.10;;;;;;;7.38;100.00;102690.84;10347404;28;20470;-67
2021/12/14 21:23:41;;;;;;;0.10;0.10;;;;;;;7.41;100.00;102695.94;10358872;28;20022;-68
2021/12/14 21:28:43;;;;;;;0.00;0.00;;;;;;;7.44;100.00;102690.47;10357222;28;20478;-67
2021/12/14 21:33:51;;;;;;;0.00;0.00;;;;;;;7.44;100.00;102684.31;10344932;28;20030;-67
2021/12/14 21:39:03;;;;;;;0.00;0.00;;;;;;;7.44;100.00;102686.97;10351031;28;20022;-68
2021/12/14 21:49:36;;;;;;;0.00;0.00;;;;;;;7.49;100.00;102695.50;10343797;28;20026;-68
2021/12/14 21:54:50;;;;;;;0.00;0.00;;;;;;;7.49;100.00;102685.72;10349901;28;20480;-68
2021/12/14 21:59:52;;;;;;;0.00;0.00;;;;;;;7.51;100.00;102693.59;10355317;28;20026;-68
2021/12/14 22:04:53;;;;;;;0.10;0.10;;;;;;;7.51;100.00;102696.25;10337521;28;20501;-68
2021/12/14 22:09:54;;;;;;;0.10;0.10;;;;;;;7.54;100.00;102696.06;10346230;28;20022;-68
2021/12/14 22:14:59;;;;;;;0.00;0.00;;;;;;;7.54;100.00;102706.69;10343570;28;20049;-68
2021/12/14 22:20:00;;;;;;;0.00;0.00;;;;;;;7.54;100.00;102714.63;10354173;28;20524;-68
2021/12/14 22:25:01;;;;;;;0.00;0.00;;;;;;;7.53;100.00;102709.41;10354741;28;20018;-68
2021/12/14 22:30:04;;;;;;;0.05;0.05;;;;;;;7.54;100.00;102711.13;10340705;28;20389;-67
2021/12/14 22:35:06;;;;;;;0.00;0.00;;;;;;;7.50;100.00;102697.19;10349494;28;20385;-68
2021/12/14 22:40:14;;;;;;;0.10;0.10;;;;;;;7.49;100.00;102695.50;10342622;28;20117;-68
2021/12/14 22:50:18;;;;;;;0.00;0.00;;;;;;;7.46;100.00;102706.28;10339399;28;20085;-70
2021/12/14 22:55:21;;;;;;;0.00;0.00;;;;;;;7.43;100.00;102701.16;10330919;28;20037;-69
2021/12/14 23:00:31;;;;;;;0.00;0.00;;;;;;;7.41;100.00;102695.09;10327699;28;20026;-71
2021/12/14 23:05:32;;;;;;;0.00;0.00;;;;;;;7.40;100.00;102694.25;10340085;28;20076;-69
2021/12/14 23:10:33;;;;;;;0.00;0.00;;;;;;;7.39;100.00;102675.81;10327398;28;20026;-71
2021/12/14 23:15:48;;;;;;;0.00;0.00;;;;;;;7.39;100.00;102686.41;10344926;28;20018;-70
2021/12/14 23:20:51;;;;;;;0.00;0.00;;;;;;;7.39;100.00;102697.00;10350318;28;20022;-70
2021/12/14 23:25:54;;;;;;;0.10;0.10;;;;;;;7.39;100.00;102689.91;10327871;28;20080;-70
2021/12/14 23:31:00;;;;;;;0.05;0.05;;;;;;;7.41;100.00;102684.50;10335146;28;20113;-69
2021/12/14 23:36:07;;;;;;;0.08;0.08;;;;;;;7.42;100.00;102686.22;10343447;28;20045;-70
2021/12/14 23:41:11;;;;;;;0.00;0.00;;;;;;;7.44;100.00;102692.25;10326840;28;20408;-72
2021/12/14 23:47:21;;;;;;;0.00;0.00;;;;;;;7.42;100.00;102679.13;10356310;28;20485;-69
2021/12/14 23:51:32;;;;;;;0.00;0.00;;;;;;;7.48;100.00;102683.19;10354306;28;20030;-69
2021/12/14 23:56:34;;;;;;;0.10;0.10;;;;;;;7.52;100.00;102684.69;10350805;28;20389;-69
